createdAt,value
2023-04-28T00:02:21.138Z,101093.53
2023-04-28T00:04:48.361Z,101097.94
2023-04-28T00:07:15.502Z,101087.34
2023-04-28T00:09:42.462Z,101087.34
2023-04-28T00:12:10.635Z,101085.56
2023-04-28T00:14:37.842Z,101083.81
2023-04-28T00:17:05.120Z,101085.56
2023-04-28T00:19:32.287Z,101081.13
2023-04-28T00:21:59.412Z,101075.88
2023-04-28T00:24:26.438Z,101073.25
2023-04-28T00:26:53.477Z,101061.84
2023-04-28T00:29:20.462Z,101073.25
2023-04-28T00:31:47.558Z,101067.09
2023-04-28T00:34:15.601Z,101062.72
2023-04-28T00:36:42.755Z,101056.59
2023-04-28T00:39:10.163Z,101043.44
2023-04-28T00:41:37.365Z,101041.69
2023-04-28T00:44:04.727Z,101041.66
2023-04-28T00:46:33.408Z,101033.75
2023-04-28T00:49:00.631Z,101033.75
2023-04-28T00:51:29.211Z,101025.88
2023-04-28T00:53:57.503Z,101020.59
2023-04-28T00:56:27.563Z,101020.59
2023-04-28T00:58:54.669Z,101015.34
2023-04-28T01:01:21.857Z,101017.09
2023-04-28T01:03:49.602Z,101010.09
2023-04-28T01:06:18.123Z,101010.97
2023-04-28T01:08:50.051Z,100993.44
2023-04-28T01:11:17.521Z,100995.19
2023-04-28T01:13:44.622Z,100987.25
2023-04-28T01:16:11.921Z,100985.50
2023-04-28T01:18:42.768Z,100990.75
2023-04-28T01:21:09.737Z,100993.41
2023-04-28T01:23:36.813Z,100998.69
2023-04-28T01:26:03.843Z,100997.81
2023-04-28T01:28:30.887Z,100996.94
2023-04-28T01:30:57.936Z,100990.81
2023-04-28T01:33:25.001Z,100984.69
2023-04-28T01:35:52.126Z,100989.06
2023-04-28T01:38:19.192Z,100982.94
2023-04-28T01:40:46.237Z,100971.50
2023-04-28T01:43:13.221Z,100975.00
2023-04-28T01:45:40.229Z,100975.00
2023-04-28T01:48:07.362Z,100985.50
2023-04-28T01:50:34.392Z,100970.63
2023-04-28T01:53:01.426Z,100971.50
2023-04-28T01:55:28.534Z,100962.72
2023-04-28T01:57:58.110Z,100964.47
2023-04-28T02:00:25.749Z,100954.84
2023-04-28T02:02:53.018Z,100955.72
2023-04-28T02:05:20.089Z,100954.00
2023-04-28T02:07:47.305Z,100942.56
2023-04-28T02:10:14.508Z,100961.84
2023-04-28T02:12:42.717Z,100964.53
2023-04-28T02:15:10.335Z,100958.38
2023-04-28T02:17:37.384Z,100967.16
2023-04-28T02:20:05.202Z,100958.38
2023-04-28T02:22:32.371Z,100941.75
2023-04-28T02:24:59.430Z,100931.25
2023-04-28T02:27:26.608Z,100925.13
2023-04-28T02:29:53.652Z,100915.47
2023-04-28T02:32:20.647Z,100915.47
2023-04-28T02:34:47.691Z,100915.44
2023-04-28T02:37:14.651Z,100912.81
2023-04-28T02:39:41.607Z,100904.06
2023-04-28T02:42:08.547Z,100894.41
2023-04-28T02:44:35.679Z,100879.56
2023-04-28T02:47:02.925Z,100858.50
2023-04-28T02:49:29.967Z,100858.50
2023-04-28T02:51:57.177Z,100869.88
2023-04-28T02:54:27.938Z,100855.84
2023-04-28T02:56:58.889Z,100850.59
2023-04-28T02:59:27.240Z,100857.59
2023-04-28T03:01:54.226Z,100866.34
2023-04-28T03:04:21.746Z,100874.25
2023-04-28T03:06:49.191Z,100875.16
2023-04-28T03:09:16.292Z,100868.13
2023-04-28T03:11:43.343Z,100864.59
2023-04-28T03:14:10.481Z,100866.34
2023-04-28T03:16:38.115Z,100864.59
2023-04-28T03:19:05.155Z,100861.09
2023-04-28T03:21:32.444Z,100864.59
2023-04-28T03:23:59.529Z,100865.50
2023-04-28T03:26:26.728Z,100862.88
2023-04-28T03:28:53.803Z,100866.38
2023-04-28T03:31:20.929Z,100855.00
2023-04-28T03:33:47.994Z,100866.38
2023-04-28T03:36:15.214Z,100861.13
2023-04-28T03:38:42.471Z,100864.63
2023-04-28T03:41:09.492Z,100864.63
2023-04-28T03:43:37.557Z,100860.25
2023-04-28T03:46:05.155Z,100855.91
2023-04-28T03:48:32.363Z,100855.88
2023-04-28T03:50:59.401Z,100860.28
2023-04-28T03:53:26.486Z,100851.50
2023-04-28T03:55:53.562Z,100839.25
2023-04-28T03:58:21.030Z,100838.38
2023-04-28T04:00:48.080Z,100834.88
2023-04-28T04:03:18.336Z,100829.59
2023-04-28T04:05:47.464Z,100832.22
2023-04-28T04:08:14.930Z,100835.72
2023-04-28T04:10:41.952Z,100833.09
2023-04-28T04:13:08.944Z,100833.09
2023-04-28T04:15:36.079Z,100834.84
2023-04-28T04:18:03.328Z,100834.84
2023-04-28T04:20:30.354Z,100843.63
2023-04-28T04:22:57.313Z,100842.75
2023-04-28T04:25:24.337Z,100834.84
2023-04-28T04:27:51.436Z,100831.34
2023-04-28T04:30:18.563Z,100824.34
2023-04-28T04:32:45.571Z,100827.88
2023-04-28T04:35:12.598Z,100828.72
2023-04-28T04:37:39.884Z,100822.59
2023-04-28T04:40:08.775Z,100806.81
2023-04-28T04:42:35.993Z,100811.22
2023-04-28T04:45:03.128Z,100811.22
2023-04-28T04:47:30.268Z,100810.34
2023-04-28T04:49:57.293Z,100806.84
2023-04-28T04:52:24.338Z,100805.09
2023-04-28T04:54:51.471Z,100797.19
2023-04-28T04:57:18.834Z,100804.25
2023-04-28T04:59:46.189Z,100798.09
2023-04-28T05:02:13.476Z,100805.97
2023-04-28T05:04:40.916Z,100802.47
2023-04-28T05:07:08.115Z,100802.47
2023-04-28T05:09:35.187Z,100806.84
2023-04-28T05:12:02.459Z,100805.09
2023-04-28T05:14:29.397Z,100807.75
2023-04-28T05:16:57.126Z,100807.72
2023-04-28T05:19:24.340Z,100808.56
2023-04-28T05:21:54.210Z,100807.66
2023-04-28T05:24:24.398Z,100808.53
2023-04-28T05:26:52.860Z,100817.31
2023-04-28T05:29:21.717Z,100815.56
2023-04-28T05:31:48.738Z,100811.16
2023-04-28T05:34:16.691Z,100805.88
2023-04-28T05:36:45.253Z,100799.72
2023-04-28T05:39:12.306Z,100800.63
2023-04-28T05:41:39.284Z,100795.34
2023-04-28T05:44:06.682Z,100802.34
2023-04-28T05:46:33.990Z,100793.56
2023-04-28T05:49:01.460Z,100789.13
2023-04-28T05:51:28.660Z,100794.31
2023-04-28T05:53:55.679Z,100796.00
2023-04-28T05:56:22.815Z,100803.88
2023-04-28T05:58:50.758Z,100798.56
2023-04-28T06:01:18.392Z,100803.78
2023-04-28T06:03:45.787Z,100802.94
2023-04-28T06:06:13.650Z,100799.44
2023-04-28T06:08:40.948Z,100797.63
2023-04-28T06:11:08.099Z,100815.09
2023-04-28T06:13:35.484Z,100807.09
2023-04-28T06:16:02.587Z,100808.00
2023-04-28T06:18:32.955Z,100812.44
2023-04-28T06:21:00.044Z,100798.47
2023-04-28T06:23:27.307Z,100801.09
2023-04-28T06:25:54.452Z,100795.78
2023-04-28T06:28:21.587Z,100791.22
2023-04-28T06:30:48.760Z,100799.88
2023-04-28T06:33:15.914Z,100801.53
2023-04-28T06:35:43.027Z,100789.94
2023-04-28T06:38:10.048Z,100798.63
2023-04-28T06:40:37.344Z,100796.88
2023-04-28T06:43:05.720Z,100801.34
2023-04-28T06:45:32.713Z,100794.22
2023-04-28T06:47:59.984Z,100784.47
2023-04-28T06:50:28.220Z,100788.94
2023-04-28T06:52:55.375Z,100787.34
2023-04-28T06:55:23.768Z,100783.91
2023-04-28T06:57:50.933Z,100779.50
2023-04-28T07:00:18.349Z,100780.31
2023-04-28T07:02:45.809Z,100772.31
2023-04-28T07:05:16.123Z,100761.50
2023-04-28T07:07:43.683Z,100765.47
2023-04-28T07:10:11.314Z,100761.56
2023-04-28T07:12:38.575Z,100773.81
2023-04-28T07:15:06.671Z,100773.75
2023-04-28T07:17:33.774Z,100779.06
2023-04-28T07:20:01.065Z,100774.81
2023-04-28T07:22:28.390Z,100780.88
2023-04-28T07:24:55.443Z,100777.47
2023-04-28T07:27:23.294Z,100784.72
2023-04-28T07:29:50.541Z,100780.34
2023-04-28T07:32:17.962Z,100773.97
2023-04-28T07:34:45.145Z,100772.94
2023-04-28T07:37:12.749Z,100786.13
2023-04-28T07:39:40.632Z,100785.41
2023-04-28T07:42:08.010Z,100783.84
2023-04-28T07:44:35.780Z,100791.81
2023-04-28T07:47:03.726Z,100790.88
2023-04-28T07:49:31.640Z,100794.34
2023-04-28T07:51:58.800Z,100785.50
2023-04-28T07:54:25.851Z,100793.47
2023-04-28T07:56:53.173Z,100790.72
2023-04-28T07:59:20.186Z,100790.47
2023-04-28T08:01:47.418Z,100798.31
2023-04-28T08:04:17.558Z,100801.78
2023-04-28T08:06:45.700Z,100798.16
2023-04-28T08:09:13.179Z,100791.78
2023-04-28T08:11:40.417Z,100792.53
2023-04-28T08:14:07.409Z,100797.66
2023-04-28T08:16:36.778Z,100793.22
2023-04-28T08:19:03.893Z,100798.34
2023-04-28T08:21:30.998Z,100790.94
2023-04-28T08:23:58.237Z,100797.81
2023-04-28T08:26:26.006Z,100799.88
2023-04-28T08:28:53.676Z,100801.72
2023-04-28T08:31:21.036Z,100796.94
2023-04-28T08:33:51.115Z,100799.28
2023-04-28T08:36:18.811Z,100800.19
2023-04-28T08:38:46.358Z,100800.81
2023-04-28T08:41:15.870Z,100802.25
2023-04-28T08:43:43.469Z,100808.38
2023-04-28T08:46:11.359Z,100803.66
2023-04-28T08:48:45.338Z,100807.19
2023-04-28T08:51:25.938Z,100802.94
2023-04-28T08:56:31.992Z,100810.25
2023-04-28T08:59:04.559Z,100806.28
2023-04-28T09:01:32.712Z,100810.00
2023-04-28T09:04:04.045Z,100811.66
2023-04-28T09:06:40.658Z,100814.91
2023-04-28T09:09:34.717Z,100801.91
2023-04-28T09:12:05.160Z,100808.91
2023-04-28T09:14:37.951Z,100808.91
2023-04-28T09:17:13.621Z,100804.38
2023-04-28T09:19:43.454Z,100798.88
2023-04-28T09:22:25.341Z,100804.53
2023-04-28T09:24:55.444Z,100803.56
2023-04-28T09:27:29.033Z,100802.00
2023-04-28T09:29:56.259Z,100801.19
2023-04-28T09:32:25.913Z,100805.41
2023-04-28T09:34:57.206Z,100794.97
2023-04-28T09:37:31.156Z,100810.75
2023-04-28T09:40:06.218Z,100807.31
2023-04-28T09:42:39.473Z,100808.44
2023-04-28T09:45:09.717Z,100812.88
2023-04-28T09:47:49.754Z,100815.84
2023-04-28T09:50:18.308Z,100811.41
2023-04-28T09:52:57.169Z,100813.16
2023-04-28T09:55:25.124Z,100816.47
2023-04-28T09:57:56.354Z,100813.97
2023-04-28T10:00:24.235Z,100811.06
2023-04-28T10:02:52.378Z,100810.41
2023-04-28T10:05:22.093Z,100813.78
2023-04-28T10:07:49.810Z,100814.75
2023-04-28T10:10:17.958Z,100814.22
2023-04-28T10:12:45.887Z,100812.63
2023-04-28T10:15:13.679Z,100805.66
2023-04-28T10:17:41.015Z,100811.06
2023-04-28T10:20:09.222Z,100808.63
2023-04-28T10:22:59.347Z,100808.66
2023-04-28T10:25:36.950Z,100805.94
2023-04-28T10:28:09.269Z,100804.72
2023-04-28T10:30:37.988Z,100811.25
2023-04-28T10:33:14.429Z,100806.50
2023-04-28T10:35:50.672Z,100810.19
2023-04-28T10:38:21.511Z,100795.69
2023-04-28T10:40:50.307Z,100802.34
2023-04-28T10:43:27.116Z,100805.13
2023-04-28T10:45:58.016Z,100802.72
2023-04-28T10:48:35.055Z,100804.03
2023-04-28T10:51:07.806Z,100798.41
2023-04-28T10:53:47.373Z,100797.16
2023-04-28T10:56:26.893Z,100797.50
2023-04-28T10:58:58.452Z,100791.91
2023-04-28T11:01:30.857Z,100783.88
2023-04-28T11:04:15.801Z,100789.06
2023-04-28T11:07:04.592Z,100784.09
2023-04-28T11:09:31.686Z,100778.19
2023-04-28T11:12:05.995Z,100781.09
2023-04-28T11:14:37.191Z,100778.16
2023-04-28T11:17:07.160Z,100776.81
2023-04-28T11:19:37.804Z,100772.81
2023-04-28T11:22:23.438Z,100776.94
2023-04-28T11:24:59.373Z,100773.38
2023-04-28T11:27:31.406Z,100771.28
2023-04-28T11:29:59.840Z,100773.03
2023-04-28T11:32:32.859Z,100766.44
2023-04-28T11:35:01.727Z,100767.09
2023-04-28T11:37:28.892Z,100772.75
2023-04-28T11:39:57.448Z,100770.38
2023-04-28T11:42:27.198Z,100769.84
2023-04-28T11:44:55.299Z,100770.00
2023-04-28T11:47:34.964Z,100773.44
2023-04-28T11:50:03.458Z,100773.41
2023-04-28T11:52:30.722Z,100778.91
2023-04-28T11:55:02.288Z,100785.00
2023-04-28T11:57:29.869Z,100789.13
2023-04-28T12:00:15.059Z,100786.00
2023-04-28T12:02:42.496Z,100791.25
2023-04-28T12:05:11.534Z,100797.25
2023-04-28T12:07:45.583Z,100798.66
2023-04-28T12:10:16.093Z,100801.81
2023-04-28T12:12:50.839Z,100799.22
2023-04-28T12:15:22.444Z,100803.38
2023-04-28T12:17:51.159Z,100801.22
2023-04-28T12:20:37.192Z,100801.75
2023-04-28T12:23:04.520Z,100798.22
2023-04-28T12:25:31.904Z,100796.81
2023-04-28T12:28:08.690Z,100802.88
2023-04-28T12:30:44.151Z,100805.66
2023-04-28T12:33:25.579Z,100812.88
2023-04-28T12:35:55.026Z,100811.88
2023-04-28T12:38:23.361Z,100813.28
2023-04-28T12:40:50.782Z,100813.41
2023-04-28T12:43:18.803Z,100811.06
2023-04-28T12:45:45.888Z,100821.03
2023-04-28T12:48:12.955Z,100828.00
2023-04-28T12:50:40.246Z,100831.19
2023-04-28T12:53:07.372Z,100831.19
2023-04-28T12:55:34.647Z,100836.03
2023-04-28T12:58:01.979Z,100838.75
2023-04-28T13:00:29.121Z,100841.84
2023-04-28T13:02:56.819Z,100847.88
2023-04-28T13:05:24.022Z,100835.00
2023-04-28T13:07:51.277Z,100851.91
2023-04-28T13:10:19.020Z,100848.38
2023-04-28T13:12:46.150Z,100851.38
2023-04-28T13:15:13.348Z,100846.41
2023-04-28T13:17:40.670Z,100853.59
2023-04-28T13:20:08.743Z,100870.34
2023-04-28T13:22:35.927Z,100868.22
2023-04-28T13:25:03.191Z,100869.44
2023-04-28T13:27:30.623Z,100868.84
2023-04-28T13:30:00.850Z,100869.78
2023-04-28T13:32:28.201Z,100872.25
2023-04-28T13:34:55.609Z,100864.88
2023-04-28T13:37:22.767Z,100867.75
2023-04-28T13:39:50.356Z,100872.97
2023-04-28T13:42:17.495Z,100875.69
2023-04-28T13:44:44.682Z,100862.31
2023-04-28T13:47:12.564Z,100869.38
2023-04-28T13:49:40.118Z,100871.75
2023-04-28T13:52:07.326Z,100865.16
2023-04-28T13:54:34.375Z,100869.53
2023-04-28T13:57:01.408Z,100863.50
2023-04-28T13:59:28.490Z,100878.88
2023-04-28T14:01:55.553Z,100870.19
2023-04-28T14:04:23.323Z,100870.63
2023-04-28T14:06:52.070Z,100880.63
2023-04-28T14:09:21.584Z,100883.72
2023-04-28T14:11:48.893Z,100874.22
2023-04-28T14:14:16.034Z,100887.91
2023-04-28T14:16:43.217Z,100884.44
2023-04-28T14:19:12.890Z,100882.31
2023-04-28T14:21:40.535Z,100888.34
2023-04-28T14:24:08.182Z,100881.00
2023-04-28T14:26:42.529Z,100890.09
2023-04-28T14:29:09.879Z,100896.13
2023-04-28T14:31:38.139Z,100894.00
2023-04-28T14:34:05.961Z,100894.09
2023-04-28T14:36:33.832Z,100886.34
2023-04-28T14:39:01.539Z,100888.22
2023-04-28T14:41:28.671Z,100892.75
2023-04-28T14:43:56.800Z,100894.81
2023-04-28T14:46:24.341Z,100886.25
2023-04-28T14:48:53.801Z,100886.72
2023-04-28T14:51:22.073Z,100883.69
2023-04-28T14:53:49.195Z,100884.56
2023-04-28T14:56:19.065Z,100895.19
2023-04-28T14:58:49.958Z,100889.03
2023-04-28T15:01:18.436Z,100895.16
2023-04-28T15:03:46.359Z,100889.53
2023-04-28T15:06:13.499Z,100887.25
2023-04-28T15:08:41.157Z,100893.75
2023-04-28T15:11:08.588Z,100891.31
2023-04-28T15:13:35.885Z,100892.97
2023-04-28T15:16:03.189Z,100891.00
2023-04-28T15:18:31.109Z,100892.16
2023-04-28T15:20:58.649Z,100904.66
2023-04-28T15:23:26.011Z,100897.78
2023-04-28T15:25:54.104Z,100895.25
2023-04-28T15:28:22.185Z,100896.22
2023-04-28T15:30:49.280Z,100898.16
2023-04-28T15:33:19.650Z,100908.09
2023-04-28T15:35:47.172Z,100903.91
2023-04-28T15:38:14.297Z,100903.22
2023-04-28T15:40:42.525Z,100902.50
2023-04-28T15:43:09.985Z,100904.97
2023-04-28T15:45:38.808Z,100911.97
2023-04-28T15:48:06.639Z,100911.94
2023-04-28T15:50:34.045Z,100912.47
2023-04-28T15:53:01.514Z,100915.63
2023-04-28T15:55:28.676Z,100917.31
2023-04-28T15:57:56.777Z,100913.75
2023-04-28T16:00:23.808Z,100907.31
2023-04-28T16:02:51.189Z,100903.25
2023-04-28T16:05:18.653Z,100907.78
2023-04-28T16:07:46.185Z,100909.69
2023-04-28T16:10:19.529Z,100912.81
2023-04-28T16:12:46.864Z,100910.88
2023-04-28T16:15:15.523Z,100917.13
2023-04-28T16:17:44.533Z,100912.94
2023-04-28T16:20:12.508Z,100916.75
2023-04-28T16:22:41.188Z,100925.78
2023-04-28T16:25:10.569Z,100923.09
2023-04-28T16:27:38.985Z,100930.41
2023-04-28T16:30:07.428Z,100918.84
2023-04-28T16:32:37.971Z,100924.31
2023-04-28T16:35:14.815Z,100922.00
2023-04-28T16:37:43.455Z,100920.56
2023-04-28T16:40:12.829Z,100921.53
2023-04-28T16:42:40.222Z,100919.50
2023-04-28T16:45:08.562Z,100922.78
2023-04-28T16:47:35.893Z,100923.34
2023-04-28T16:50:03.407Z,100920.63
2023-04-28T16:52:31.010Z,100923.53
2023-04-28T16:54:58.922Z,100920.31
2023-04-28T16:57:26.720Z,100924.09
2023-04-28T16:59:54.024Z,100928.06
2023-04-28T17:02:22.174Z,100920.53
2023-04-28T17:04:50.940Z,100930.56
2023-04-28T17:07:18.246Z,100921.69
2023-04-28T17:09:45.532Z,100917.03
2023-04-28T17:12:12.968Z,100929.44
2023-04-28T17:14:40.498Z,100928.59
2023-04-28T17:17:08.160Z,100925.22
2023-04-28T17:20:47.108Z,100934.88
2023-04-28T17:23:14.197Z,100929.56
2023-04-28T17:25:41.271Z,100921.38
2023-04-28T17:28:08.448Z,100930.47
2023-04-28T17:30:36.819Z,100930.81
2023-04-28T17:33:24.433Z,100944.47
2023-04-28T17:35:52.123Z,100947.41
2023-04-28T17:38:19.162Z,100940.41
2023-04-28T17:40:48.575Z,100943.13
2023-04-28T17:43:20.457Z,100942.38
2023-04-28T17:45:47.627Z,100945.22
2023-04-28T17:48:14.702Z,100961.28
2023-04-28T17:50:41.930Z,100957.91
2023-04-28T17:53:09.009Z,100959.78
2023-04-28T17:55:36.425Z,100956.41
2023-04-28T17:58:03.504Z,100955.69
2023-04-28T18:00:30.514Z,100954.97
2023-04-28T18:03:00.041Z,100963.06
2023-04-28T18:05:27.638Z,100959.66
2023-04-28T18:08:02.450Z,100963.28
2023-04-28T18:10:30.556Z,100961.69
2023-04-28T18:12:59.088Z,100968.84
2023-04-28T18:15:27.030Z,100975.97
2023-04-28T18:17:54.180Z,100967.16
2023-04-28T18:20:21.360Z,100967.19
2023-04-28T18:22:48.359Z,100969.84
2023-04-28T18:25:16.958Z,100969.00
2023-04-28T18:27:44.206Z,100977.88
2023-04-28T18:30:11.461Z,100984.03
2023-04-28T18:32:38.562Z,100984.97
2023-04-28T18:35:05.668Z,100987.66
2023-04-28T18:37:32.745Z,100987.66
2023-04-28T18:40:00.087Z,100988.56
2023-04-28T18:42:32.730Z,100987.72
2023-04-28T18:45:02.394Z,100985.13
2023-04-28T18:47:29.419Z,100995.78
2023-04-28T18:49:56.612Z,100993.16
2023-04-28T18:52:24.502Z,100989.72
2023-04-28T18:54:53.869Z,100996.84
2023-04-28T18:57:20.850Z,101003.06
2023-04-28T18:59:49.123Z,101004.88
2023-04-28T19:02:16.644Z,100997.00
2023-04-28T19:04:46.025Z,101010.34
2023-04-28T19:07:13.095Z,101013.91
2023-04-28T19:09:40.147Z,101021.06
2023-04-28T19:12:07.220Z,101021.16
2023-04-28T19:14:34.970Z,101028.28
2023-04-28T19:17:02.176Z,101032.72
2023-04-28T19:19:29.410Z,101035.34
2023-04-28T19:21:57.204Z,101038.06
2023-04-28T19:24:24.216Z,101043.38
2023-04-28T19:26:51.891Z,101050.50
2023-04-28T19:29:20.050Z,101056.72
2023-04-28T19:31:48.977Z,101064.66
2023-04-28T19:34:16.028Z,101069.13
2023-04-28T19:36:43.048Z,101065.56
2023-04-28T19:39:10.001Z,101075.28
2023-04-28T19:41:36.995Z,101070.88
2023-04-28T19:44:04.360Z,101072.66
2023-04-28T19:46:31.525Z,101081.50
2023-04-28T19:48:58.574Z,101081.50
2023-04-28T19:51:25.578Z,101080.66
2023-04-28T19:53:52.601Z,101082.44
2023-04-28T19:56:20.417Z,101084.22
2023-04-28T19:58:48.504Z,101084.25
2023-04-28T20:01:15.629Z,101092.19
2023-04-28T20:03:43.116Z,101092.22
2023-04-28T20:06:17.609Z,101095.75
2023-04-28T20:08:45.743Z,101108.09
2023-04-28T20:11:12.815Z,101110.75
2023-04-28T20:13:39.878Z,101106.34
2023-04-28T20:16:07.087Z,101109.03
2023-04-28T20:18:35.869Z,101118.78
2023-04-28T20:21:03.598Z,101117.94
2023-04-28T20:23:30.709Z,101127.69
2023-04-28T20:25:57.960Z,101139.22
2023-04-28T20:28:24.992Z,101136.59
2023-04-28T20:30:53.347Z,101132.25
2023-04-28T20:33:20.389Z,101131.38
2023-04-28T20:35:49.916Z,101134.91
2023-04-28T20:38:17.393Z,101130.50
2023-04-28T20:40:44.636Z,101132.28
2023-04-28T20:43:11.708Z,101134.94
2023-04-28T20:45:38.772Z,101143.75
2023-04-28T20:48:05.887Z,101138.50
2023-04-28T20:50:34.027Z,101142.00
2023-04-28T20:53:01.491Z,101143.78
2023-04-28T20:55:28.831Z,101144.66
2023-04-28T20:57:56.170Z,101145.59
2023-04-28T21:00:23.429Z,101142.06
2023-04-28T21:02:50.821Z,101148.22
2023-04-28T21:05:18.184Z,101155.25
2023-04-28T21:07:45.341Z,101150.88
2023-04-28T21:10:12.517Z,101161.44
2023-04-28T21:12:39.586Z,101157.94
2023-04-28T21:15:07.311Z,101150.91
2023-04-28T21:17:34.361Z,101152.66
2023-04-28T21:20:01.326Z,101150.03
2023-04-28T21:22:28.798Z,101148.31
2023-04-28T21:24:56.219Z,101151.81
2023-04-28T21:27:23.497Z,101155.34
2023-04-28T21:29:50.876Z,101156.25
2023-04-28T21:32:18.479Z,101157.94
2023-04-28T21:34:49.652Z,101158.84
2023-04-28T21:37:16.941Z,101157.09
2023-04-28T21:39:44.264Z,101158.00
2023-04-28T21:42:11.321Z,101153.59
2023-04-28T21:44:38.525Z,101152.72
2023-04-28T21:47:06.880Z,101149.22
2023-04-28T21:49:33.912Z,101153.59
2023-04-28T21:52:00.858Z,101145.69
2023-04-28T21:54:27.832Z,101156.28
2023-04-28T21:56:54.833Z,101160.66
2023-04-28T21:59:21.857Z,101167.72
2023-04-28T22:01:49.892Z,101166.84
2023-04-28T22:04:17.671Z,101171.25
2023-04-28T22:06:45.592Z,101181.81
2023-04-28T22:09:12.633Z,101174.75
2023-04-28T22:11:39.750Z,101172.16
2023-04-28T22:14:06.842Z,101180.06
2023-04-28T22:16:33.913Z,101173.88
2023-04-28T22:19:01.028Z,101173.00
2023-04-28T22:21:28.452Z,101181.81
2023-04-28T22:23:55.765Z,101177.44
2023-04-28T22:26:25.865Z,101185.34
2023-04-28T22:28:53.116Z,101184.44
2023-04-28T22:31:20.189Z,101184.44
2023-04-28T22:33:47.247Z,101190.59
2023-04-28T22:36:14.272Z,101190.59
2023-04-28T22:38:41.378Z,101186.22
2023-04-28T22:41:08.379Z,101191.50
2023-04-28T22:43:35.668Z,101193.25
2023-04-28T22:46:02.776Z,101206.44
2023-04-28T22:48:29.850Z,101198.53
2023-04-28T22:50:57.042Z,101202.00
2023-04-28T22:53:24.205Z,101202.03
2023-04-28T22:55:51.342Z,101194.97
2023-04-28T22:58:18.337Z,101196.75
2023-04-28T23:00:45.751Z,101200.25
2023-04-28T23:03:12.901Z,101199.38
2023-04-28T23:05:40.087Z,101213.44
2023-04-28T23:08:07.101Z,101215.19
2023-04-28T23:10:34.549Z,101217.81
2023-04-28T23:13:01.685Z,101212.56
2023-04-28T23:15:28.854Z,101216.06
2023-04-28T23:17:55.872Z,101212.56
2023-04-28T23:20:22.890Z,101223.09
2023-04-28T23:22:50.439Z,101216.06
2023-04-28T23:25:17.588Z,101230.97
2023-04-28T23:27:44.657Z,101223.94
2023-04-28T23:30:12.612Z,101223.06
2023-04-28T23:32:39.818Z,101230.09
2023-04-28T23:35:07.245Z,101231.00
2023-04-28T23:37:34.334Z,101243.31
2023-04-28T23:40:01.594Z,101239.78
2023-04-28T23:42:28.998Z,101238.91
2023-04-28T23:44:55.964Z,101244.16
2023-04-28T23:47:23.606Z,101246.78
2023-04-28T23:49:50.863Z,101245.03
2023-04-28T23:52:19.436Z,101256.44
2023-04-28T23:54:46.637Z,101252.03
2023-04-28T23:57:13.677Z,101249.38
2023-04-28T23:59:40.739Z,101253.78
